Time;durP1;ratioP1;P1;durP2;ratioP2;P2;SDS_P1;SDS_P2;PMS_P1;PMS_P2;Temp;Humidity;BMP_temperature;BMP_pressure;BME280_temperature;BME280_humidity;BME280_pressure;Samples;Min_cycle;Max_cycle;Signal;HPM_P1;HPM_P2
2021/09/18 00:00:09;;;;;;;;;3.25;3.25;;;;;;;;2773336;51;8779;-69
2021/09/18 00:02:34;;;;;;;;;4.80;3.00;;;;;;;;2777978;51;8905;-72
2021/09/18 00:05:00;;;;;;;;;4.75;1.00;;;;;;;;2779394;51;8764;-68
2021/09/18 00:07:25;;;;;;;;;2.00;2.00;;;;;;;;2779433;51;8745;-69
2021/09/18 00:09:51;;;;;;;;;3.00;3.00;;;;;;;;2779109;51;8764;-72
2021/09/18 00:12:16;;;;;;;;;2.00;2.00;;;;;;;;2779175;51;8787;-69
2021/09/18 00:14:42;;;;;;;;;2.00;2.00;;;;;;;;2779563;51;8756;-69
2021/09/18 00:17:08;;;;;;;;;2.75;2.25;;;;;;;;2779302;51;8900;-69
2021/09/18 00:19:34;;;;;;;;;3.25;3.25;;;;;;;;2779480;51;8788;-69
2021/09/18 00:21:59;;;;;;;;;3.00;2.00;;;;;;;;2779723;51;8756;-69
2021/09/18 00:24:25;;;;;;;;;2.25;2.00;;;;;;;;2779401;51;8752;-68
2021/09/18 00:26:51;;;;;;;;;2.25;2.25;;;;;;;;2779283;51;9417;-70
2021/09/18 00:29:16;;;;;;;;;3.25;2.75;;;;;;;;2779310;51;8784;-73
2021/09/18 00:31:42;;;;;;;;;2.00;2.00;;;;;;;;2779560;51;8760;-71
2021/09/18 00:34:08;;;;;;;;;3.20;2.00;;;;;;;;2779191;51;8752;-69
2021/09/18 00:36:33;;;;;;;;;4.00;2.00;;;;;;;;2779318;51;8748;-72
2021/09/18 00:38:59;;;;;;;;;2.00;2.00;;;;;;;;2779228;51;8775;-72
2021/09/18 00:41:25;;;;;;;;;2.25;2.25;;;;;;;;2779530;51;8768;-74
2021/09/18 00:43:51;;;;;;;;;2.00;2.00;;;;;;;;2774874;51;8775;-73
2021/09/18 00:46:17;;;;;;;;;3.20;1.60;;;;;;;;2773243;51;8779;-72
2021/09/18 00:48:42;;;;;;;;;4.00;2.00;;;;;;;;2773418;51;9376;-72
2021/09/18 00:51:08;;;;;;;;;0.75;0.75;;;;;;;;2773507;51;8881;-71
2021/09/18 00:53:34;;;;;;;;;3.25;2.00;;;;;;;;2773288;51;8759;-72
2021/09/18 00:56:00;;;;;;;;;2.50;1.50;;;;;;;;2773624;51;8758;-72
2021/09/18 00:58:25;;;;;;;;;3.20;1.60;;;;;;;;2773218;51;8759;-71
2021/09/18 01:00:51;;;;;;;;;2.00;2.00;;;;;;;;2773146;51;8767;-72
2021/09/18 01:03:17;;;;;;;;;2.00;2.00;;;;;;;;2773352;51;8762;-72
2021/09/18 01:05:42;;;;;;;;;2.25;2.25;;;;;;;;2773294;51;8768;-72
2021/09/18 01:08:11;;;;;;;;;4.00;2.00;;;;;;;;2773311;51;8758;-73
2021/09/18 01:10:37;;;;;;;;;2.20;2.20;;;;;;;;2773159;51;8778;-72
2021/09/18 01:13:05;;;;;;;;;2.20;1.80;;;;;;;;2773120;51;8774;-72
2021/09/18 01:15:32;;;;;;;;;3.60;3.60;;;;;;;;2773513;51;8767;-73
2021/09/18 01:17:58;;;;;;;;;3.60;2.20;;;;;;;;2773054;51;8782;-72
2021/09/18 01:20:25;;;;;;;;;2.00;2.00;;;;;;;;2773236;51;8775;-72
2021/09/18 01:22:51;;;;;;;;;2.80;2.00;;;;;;;;2772946;51;8767;-71
2021/09/18 01:25:16;;;;;;;;;2.80;2.00;;;;;;;;2773036;51;9372;-72
2021/09/18 01:27:45;;;;;;;;;2.00;2.00;;;;;;;;2773228;51;8836;-72
2021/09/18 01:30:21;;;;;;;;;2.00;1.60;;;;;;;;2773098;51;8770;-71
2021/09/18 01:32:48;;;;;;;;;2.20;2.20;;;;;;;;2773142;51;9388;-70
2021/09/18 01:35:13;;;;;;;;;3.00;2.00;;;;;;;;2773140;51;8762;-71
2021/09/18 01:37:40;;;;;;;;;1.00;1.00;;;;;;;;2773165;51;8790;-71
2021/09/18 01:40:06;;;;;;;;;3.00;3.00;;;;;;;;2772943;51;8774;-71
2021/09/18 01:42:31;;;;;;;;;1.80;1.80;;;;;;;;2773012;51;8747;-72
2021/09/18 01:44:57;;;;;;;;;3.00;3.00;;;;;;;;2773072;51;8779;-72
2021/09/18 01:47:22;;;;;;;;;2.00;2.00;;;;;;;;2772927;51;9030;-71
2021/09/18 01:49:48;;;;;;;;;6.25;3.00;;;;;;;;2772845;51;8782;-72
2021/09/18 01:52:33;;;;;;;;;1.00;1.00;;;;;;;;2773046;51;8771;-71
2021/09/18 01:54:59;;;;;;;;;2.20;1.80;;;;;;;;2773163;51;8842;-71
2021/09/18 01:57:24;;;;;;;;;1.00;1.00;;;;;;;;2773339;51;9380;-72
2021/09/18 01:59:50;;;;;;;;;3.00;1.00;;;;;;;;2772987;51;8909;-71
2021/09/18 02:02:16;;;;;;;;;2.00;2.00;;;;;;;;2772874;51;8755;-73
2021/09/18 02:04:41;;;;;;;;;2.75;2.75;;;;;;;;2773045;51;9377;-73
2021/09/18 02:07:07;;;;;;;;;2.50;2.50;;;;;;;;2773056;51;8766;-73
2021/09/18 02:09:32;;;;;;;;;2.25;2.25;;;;;;;;2773104;51;8771;-72
2021/09/18 02:11:58;;;;;;;;;2.50;2.00;;;;;;;;2773052;51;8771;-72
2021/09/18 02:14:24;;;;;;;;;10.00;4.00;;;;;;;;2773152;51;8771;-72
2021/09/18 02:16:49;;;;;;;;;2.00;2.00;;;;;;;;2772960;51;8869;-73
2021/09/18 02:19:15;;;;;;;;;4.00;4.00;;;;;;;;2772804;51;8791;-71
2021/09/18 02:21:40;;;;;;;;;3.00;2.00;;;;;;;;2772793;51;8774;-73
2021/09/18 02:24:06;;;;;;;;;4.25;3.00;;;;;;;;2772942;51;8863;-73
2021/09/18 02:26:32;;;;;;;;;4.00;3.50;;;;;;;;2772858;51;8791;-72
2021/09/18 02:28:57;;;;;;;;;3.25;2.25;;;;;;;;2772855;51;8790;-73
2021/09/18 02:31:23;;;;;;;;;3.75;3.00;;;;;;;;2772947;51;8803;-73
2021/09/18 02:33:48;;;;;;;;;1.50;0.50;;;;;;;;2772879;51;8889;-72
2021/09/18 02:36:14;;;;;;;;;3.50;3.50;;;;;;;;2772599;51;8774;-71
2021/09/18 02:38:40;;;;;;;;;3.00;3.00;;;;;;;;2772718;51;8864;-71
2021/09/18 02:41:05;;;;;;;;;4.50;3.50;;;;;;;;2772866;51;8767;-72
2021/09/18 02:43:31;;;;;;;;;5.00;4.00;;;;;;;;2773169;51;8790;-73
2021/09/18 02:45:56;;;;;;;;;6.25;3.25;;;;;;;;2773198;51;8766;-73
2021/09/18 02:48:22;;;;;;;;;4.75;4.00;;;;;;;;2773023;51;8913;-72
2021/09/18 02:50:49;;;;;;;;;4.25;4.25;;;;;;;;2772718;51;8770;-73
2021/09/18 02:53:15;;;;;;;;;4.00;4.00;;;;;;;;2772916;51;8759;-71
2021/09/18 02:55:40;;;;;;;;;4.00;4.00;;;;;;;;2772611;51;8803;-72
2021/09/18 02:58:06;;;;;;;;;4.75;3.50;;;;;;;;2773404;51;8779;-72
2021/09/18 03:00:32;;;;;;;;;4.50;3.25;;;;;;;;2773594;51;8763;-72
2021/09/18 03:02:57;;;;;;;;;4.50;4.50;;;;;;;;2773582;51;8783;-71
2021/09/18 03:05:23;;;;;;;;;4.00;4.00;;;;;;;;2773587;51;8755;-70
2021/09/18 03:07:49;;;;;;;;;4.75;4.75;;;;;;;;2773666;51;8774;-71
2021/09/18 03:10:14;;;;;;;;;3.75;3.75;;;;;;;;2773789;51;8751;-71
2021/09/18 03:12:40;;;;;;;;;6.25;6.00;;;;;;;;2773799;51;8751;-71
2021/09/18 03:15:06;;;;;;;;;7.25;5.00;;;;;;;;2774042;51;8774;-72
2021/09/18 03:17:32;;;;;;;;;4.40;4.40;;;;;;;;2774372;51;8791;-75
2021/09/18 03:19:58;;;;;;;;;6.00;6.00;;;;;;;;2773590;51;9384;-73
2021/09/18 03:22:23;;;;;;;;;4.25;4.25;;;;;;;;2773769;51;9401;-73
2021/09/18 03:24:49;;;;;;;;;6.75;4.50;;;;;;;;2773900;51;8889;-72
2021/09/18 03:27:15;;;;;;;;;4.00;4.00;;;;;;;;2774031;51;8747;-72
2021/09/18 03:29:41;;;;;;;;;4.00;3.00;;;;;;;;2773701;51;8759;-73
2021/09/18 03:32:06;;;;;;;;;7.00;4.00;;;;;;;;2773605;51;8766;-73
2021/09/18 03:34:32;;;;;;;;;6.00;4.50;;;;;;;;2773814;51;8758;-72
2021/09/18 03:36:57;;;;;;;;;5.25;5.25;;;;;;;;2773506;51;8785;-72
2021/09/18 03:39:23;;;;;;;;;5.75;4.50;;;;;;;;2773679;51;8782;-74
2021/09/18 03:41:49;;;;;;;;;7.50;7.00;;;;;;;;2773696;51;8860;-72
2021/09/18 03:44:14;;;;;;;;;5.50;5.25;;;;;;;;2773621;51;8758;-73
2021/09/18 03:46:40;;;;;;;;;6.75;5.75;;;;;;;;2773603;51;9424;-73
2021/09/18 03:49:06;;;;;;;;;5.00;3.75;;;;;;;;2773669;51;8773;-71
2021/09/18 03:51:32;;;;;;;;;5.80;5.80;;;;;;;;2773375;51;8836;-72
2021/09/18 03:53:57;;;;;;;;;6.00;6.00;;;;;;;;2773291;51;8921;-72
2021/09/18 03:56:23;;;;;;;;;8.00;6.25;;;;;;;;2773339;51;8751;-72
2021/09/18 03:58:48;;;;;;;;;4.00;4.00;;;;;;;;2773296;51;8811;-73
2021/09/18 04:01:14;;;;;;;;;6.25;4.75;;;;;;;;2773361;51;8759;-72
2021/09/18 04:03:40;;;;;;;;;5.00;5.00;;;;;;;;2773621;51;9461;-72
2021/09/18 04:06:05;;;;;;;;;6.00;3.50;;;;;;;;2773614;51;8782;-72
2021/09/18 04:08:31;;;;;;;;;2.50;2.50;;;;;;;;2773076;51;8763;-74
2021/09/18 04:10:57;;;;;;;;;6.00;4.00;;;;;;;;2773236;51;8771;-73
2021/09/18 04:13:22;;;;;;;;;6.25;4.75;;;;;;;;2773497;51;8860;-73
2021/09/18 04:15:48;;;;;;;;;5.50;5.25;;;;;;;;2773387;51;8778;-73
2021/09/18 04:18:13;;;;;;;;;5.00;4.00;;;;;;;;2773275;51;8927;-74
2021/09/18 04:20:39;;;;;;;;;4.00;4.00;;;;;;;;2773223;51;8767;-72
2021/09/18 04:23:05;;;;;;;;;5.75;5.00;;;;;;;;2773304;51;8791;-73
2021/09/18 04:25:30;;;;;;;;;6.00;5.00;;;;;;;;2773173;51;8849;-71
2021/09/18 04:27:56;;;;;;;;;4.00;4.00;;;;;;;;2773488;51;8747;-73
2021/09/18 04:30:21;;;;;;;;;5.00;4.00;;;;;;;;2773511;51;8755;-72
2021/09/18 04:32:47;;;;;;;;;4.75;4.75;;;;;;;;2773286;51;8778;-73
2021/09/18 04:35:13;;;;;;;;;4.80;3.40;;;;;;;;2773334;51;8897;-72
2021/09/18 04:37:40;;;;;;;;;3.50;3.50;;;;;;;;2773328;51;8877;-72
2021/09/18 04:40:06;;;;;;;;;6.60;6.20;;;;;;;;2773372;51;8758;-73
2021/09/18 04:42:32;;;;;;;;;7.60;4.60;;;;;;;;2773436;51;8864;-73
2021/09/18 04:44:57;;;;;;;;;7.50;5.00;;;;;;;;2772921;51;8840;-74
2021/09/18 04:47:23;;;;;;;;;4.00;4.00;;;;;;;;2773180;51;8771;-72
2021/09/18 04:49:48;;;;;;;;;4.00;4.00;;;;;;;;2773156;51;8770;-74
2021/09/18 04:52:14;;;;;;;;;5.00;4.25;;;;;;;;2773238;51;8763;-72
2021/09/18 04:54:40;;;;;;;;;6.00;4.25;;;;;;;;2773169;51;9408;-71
2021/09/18 04:57:05;;;;;;;;;4.00;4.00;;;;;;;;2773080;51;8778;-74
2021/09/18 04:59:31;;;;;;;;;3.25;3.25;;;;;;;;2773074;51;8786;-73
2021/09/18 05:01:57;;;;;;;;;3.25;3.25;;;;;;;;2773067;51;8972;-75
2021/09/18 05:04:22;;;;;;;;;3.25;3.25;;;;;;;;2772777;51;8884;-72
2021/09/18 05:06:48;;;;;;;;;4.00;3.50;;;;;;;;2772981;51;8885;-69
2021/09/18 05:09:13;;;;;;;;;3.00;3.00;;;;;;;;2773285;51;8758;-71
2021/09/18 05:11:40;;;;;;;;;3.00;2.00;;;;;;;;2773188;51;8775;-70
2021/09/18 05:14:05;;;;;;;;;3.20;2.20;;;;;;;;2773599;51;8774;-68
2021/09/18 05:16:31;;;;;;;;;4.00;3.00;;;;;;;;2773007;51;8878;-69
2021/09/18 05:18:57;;;;;;;;;4.50;4.50;;;;;;;;2772888;51;9383;-73
2021/09/18 05:21:23;;;;;;;;;2.80;2.80;;;;;;;;2774237;51;8751;-73
2021/09/18 05:23:49;;;;;;;;;2.25;2.25;;;;;;;;2772593;51;8771;-74
2021/09/18 05:26:15;;;;;;;;;4.00;2.40;;;;;;;;2776014;51;8755;-73
2021/09/18 05:28:41;;;;;;;;;4.80;3.00;;;;;;;;2775271;51;8762;-79
2021/09/18 05:31:07;;;;;;;;;2.00;2.00;;;;;;;;2772917;51;8763;-71
2021/09/18 05:33:32;;;;;;;;;4.50;3.50;;;;;;;;2778194;51;8760;-73
2021/09/18 05:35:58;;;;;;;;;5.50;5.00;;;;;;;;2777094;51;10412;-74
2021/09/18 05:38:24;;;;;;;;;1.00;1.00;;;;;;;;2778971;51;8781;-74
2021/09/18 05:40:50;;;;;;;;;3.60;3.20;;;;;;;;2776829;51;8773;-75
2021/09/18 05:43:15;;;;;;;;;6.00;4.00;;;;;;;;2773297;51;8817;-75
2021/09/18 05:45:41;;;;;;;;;2.25;2.25;;;;;;;;2773080;51;8801;-74
2021/09/18 05:48:06;;;;;;;;;2.50;2.25;;;;;;;;2773096;51;8789;-73
2021/09/18 05:50:33;;;;;;;;;6.25;4.00;;;;;;;;2772841;51;8770;-73
2021/09/18 05:52:58;;;;;;;;;3.00;3.00;;;;;;;;2772809;51;8765;-73
2021/09/18 05:55:24;;;;;;;;;4.00;3.00;;;;;;;;2773248;51;8781;-71
2021/09/18 05:57:50;;;;;;;;;4.00;3.00;;;;;;;;2775043;51;8774;-75
2021/09/18 06:00:15;;;;;;;;;3.50;2.25;;;;;;;;2779068;51;8814;-73
2021/09/18 06:02:41;;;;;;;;;3.00;1.50;;;;;;;;2779338;51;11400;-73
2021/09/18 06:05:08;;;;;;;;;2.00;2.00;;;;;;;;2778779;51;10083;-73
2021/09/18 06:07:34;;;;;;;;;2.60;2.20;;;;;;;;2778739;51;8896;-72
2021/09/18 06:09:59;;;;;;;;;2.00;2.00;;;;;;;;2778790;51;8774;-68
2021/09/18 06:12:25;;;;;;;;;1.00;1.00;;;;;;;;2778944;51;8807;-71
2021/09/18 06:14:50;;;;;;;;;1.00;1.00;;;;;;;;2778935;51;8778;-75
2021/09/18 06:17:16;;;;;;;;;1.50;1.50;;;;;;;;2778432;51;8796;-74
2021/09/18 06:19:41;;;;;;;;;1.50;1.50;;;;;;;;2778894;51;8799;-73
2021/09/18 06:22:12;;;;;;;;;0.50;0.50;;;;;;;;2778889;51;9415;-73
2021/09/18 06:24:38;;;;;;;;;2.00;2.00;;;;;;;;2779107;51;8781;-75
2021/09/18 06:27:03;;;;;;;;;2.00;1.00;;;;;;;;2778793;51;8782;-77
2021/09/18 06:29:29;;;;;;;;;1.00;1.00;;;;;;;;2778979;51;8775;-78
2021/09/18 06:31:55;;;;;;;;;0.50;0.50;;;;;;;;2778068;51;8788;-79
2021/09/18 06:34:20;;;;;;;;;2.00;1.00;;;;;;;;2773261;51;8785;-77
2021/09/18 06:36:46;;;;;;;;;1.00;1.00;;;;;;;;2773533;51;8784;-74
2021/09/18 06:39:11;;;;;;;;;1.50;0.75;;;;;;;;2773694;51;8940;-74
2021/09/18 06:41:37;;;;;;;;;1.50;1.50;;;;;;;;2773925;51;8781;-74
2021/09/18 06:44:03;;;;;;;;;4.00;2.25;;;;;;;;2773650;51;8753;-73
2021/09/18 06:46:28;;;;;;;;;1.75;1.75;;;;;;;;2773754;51;8777;-73
2021/09/18 06:48:54;;;;;;;;;2.50;2.50;;;;;;;;2773747;51;8889;-72
2021/09/18 06:51:20;;;;;;;;;3.00;1.00;;;;;;;;2773760;51;8791;-75
2021/09/18 06:53:46;;;;;;;;;4.00;2.80;;;;;;;;2773995;51;8784;-72
2021/09/18 06:56:11;;;;;;;;;0.00;0.00;;;;;;;;2773969;51;8761;-72
2021/09/18 06:58:37;;;;;;;;;1.50;1.50;;;;;;;;2773590;51;8776;-70
2021/09/18 07:01:02;;;;;;;;;1.25;1.00;;;;;;;;2773248;51;8832;-70
2021/09/18 07:03:28;;;;;;;;;3.75;2.50;;;;;;;;2773686;51;8789;-70
2021/09/18 07:05:54;;;;;;;;;2.00;2.00;;;;;;;;2773636;51;8807;-72
2021/09/18 07:08:19;;;;;;;;;4.25;3.00;;;;;;;;2773897;51;8789;-71
2021/09/18 07:10:45;;;;;;;;;2.00;2.00;;;;;;;;2773649;51;8789;-76
2021/09/18 07:13:11;;;;;;;;;3.25;3.00;;;;;;;;2773665;51;8769;-76
2021/09/18 07:15:36;;;;;;;;;1.50;1.50;;;;;;;;2773396;51;8769;-82
2021/09/18 07:18:02;;;;;;;;;2.75;2.00;;;;;;;;2773497;51;9461;-72
2021/09/18 07:20:27;;;;;;;;;1.25;1.25;;;;;;;;2773500;51;8919;-75
2021/09/18 07:22:53;;;;;;;;;2.50;2.00;;;;;;;;2773994;51;8788;-73
2021/09/18 07:25:19;;;;;;;;;3.50;2.50;;;;;;;;2773614;51;9426;-74
2021/09/18 07:27:44;;;;;;;;;0.00;0.00;;;;;;;;2773712;51;8773;-75
2021/09/18 07:30:10;;;;;;;;;2.50;2.50;;;;;;;;2773568;51;8787;-76
2021/09/18 07:32:36;;;;;;;;;2.20;2.20;;;;;;;;2777198;51;8774;-79
2021/09/18 07:35:06;;;;;;;;;2.00;2.00;;;;;;;;2779666;51;8852;-77
2021/09/18 07:37:33;;;;;;;;;3.00;2.80;;;;;;;;2778989;51;8766;-78
2021/09/18 07:39:59;;;;;;;;;3.00;3.00;;;;;;;;2779657;51;9543;-77
2021/09/18 07:42:24;;;;;;;;;3.50;2.00;;;;;;;;2779564;51;8778;-77
2021/09/18 07:44:50;;;;;;;;;3.00;1.00;;;;;;;;2779980;51;8782;-79
2021/09/18 07:47:15;;;;;;;;;3.25;2.75;;;;;;;;2779599;51;8767;-77
2021/09/18 07:49:48;;;;;;;;;3.00;2.20;;;;;;;;2779442;51;8735;-75
2021/09/18 07:52:13;;;;;;;;;3.00;3.00;;;;;;;;2779414;51;8877;-76
2021/09/18 07:54:39;;;;;;;;;5.00;3.00;;;;;;;;2779788;51;9415;-74
2021/09/18 07:57:04;;;;;;;;;1.75;1.50;;;;;;;;2779449;51;8777;-74
2021/09/18 07:59:30;;;;;;;;;3.00;3.00;;;;;;;;2779298;51;8814;-76
2021/09/18 08:01:56;;;;;;;;;5.25;4.00;;;;;;;;2779401;51;9400;-73
2021/09/18 08:04:21;;;;;;;;;4.75;2.75;;;;;;;;2779218;51;8783;-74
2021/09/18 08:06:47;;;;;;;;;5.50;3.75;;;;;;;;2779364;51;8771;-72
2021/09/18 08:09:12;;;;;;;;;4.50;4.50;;;;;;;;2779302;51;8770;-75
2021/09/18 08:11:38;;;;;;;;;4.00;2.25;;;;;;;;2779306;51;8766;-74
2021/09/18 08:14:04;;;;;;;;;2.50;2.50;;;;;;;;2779080;51;8766;-73
2021/09/18 08:16:30;;;;;;;;;2.00;2.00;;;;;;;;2779193;51;8982;-74
2021/09/18 08:18:55;;;;;;;;;1.80;1.60;;;;;;;;2779640;51;8885;-77
2021/09/18 08:21:21;;;;;;;;;4.50;3.00;;;;;;;;2779315;51;8869;-74
2021/09/18 08:23:47;;;;;;;;;2.25;2.00;;;;;;;;2779482;51;8912;-72
2021/09/18 08:26:12;;;;;;;;;2.75;1.75;;;;;;;;2779275;51;11469;-74
2021/09/18 08:28:38;;;;;;;;;5.00;3.00;;;;;;;;2779472;51;8779;-75
2021/09/18 08:31:04;;;;;;;;;3.50;3.50;;;;;;;;2779922;51;8766;-74
2021/09/18 08:33:30;;;;;;;;;1.80;1.80;;;;;;;;2773396;51;11565;-78
2021/09/18 08:35:56;;;;;;;;;2.25;2.25;;;;;;;;2773167;51;9474;-77
2021/09/18 08:38:23;;;;;;;;;1.25;1.25;;;;;;;;2773281;51;8882;-77
2021/09/18 08:40:50;;;;;;;;;2.20;2.00;;;;;;;;2773194;51;8801;-77
2021/09/18 08:43:17;;;;;;;;;1.40;1.40;;;;;;;;2773463;51;8781;-74
2021/09/18 08:45:42;;;;;;;;;2.00;2.00;;;;;;;;2773404;51;8847;-76
2021/09/18 08:48:08;;;;;;;;;2.00;2.00;;;;;;;;2773316;51;8773;-75
2021/09/18 08:50:35;;;;;;;;;2.25;1.00;;;;;;;;2772635;51;9638;-75
2021/09/18 08:53:00;;;;;;;;;2.00;2.00;;;;;;;;2773207;51;11570;-73
2021/09/18 08:55:26;;;;;;;;;1.00;1.00;;;;;;;;2773144;51;8797;-74
2021/09/18 08:57:52;;;;;;;;;2.25;2.25;;;;;;;;2773207;51;8781;-74
2021/09/18 09:00:33;;;;;;;;;2.00;1.75;;;;;;;;2773191;51;8947;-71
2021/09/18 09:02:59;;;;;;;;;2.00;2.00;;;;;;;;2773226;51;11436;-73
2021/09/18 09:05:30;;;;;;;;;3.20;2.80;;;;;;;;2773159;51;8753;-76
2021/09/18 09:08:09;;;;;;;;;3.60;1.60;;;;;;;;2772986;51;8791;-75
2021/09/18 09:10:35;;;;;;;;;1.80;0.80;;;;;;;;2773396;51;8776;-83
2021/09/18 09:13:08;;;;;;;;;0.40;0.40;;;;;;;;2773365;51;8781;-81
2021/09/18 09:15:34;;;;;;;;;1.40;1.40;;;;;;;;2773318;51;9394;-80
2021/09/18 09:18:19;;;;;;;;;1.25;0.25;;;;;;;;2773076;51;8807;-80
2021/09/18 09:20:46;;;;;;;;;0.50;0.00;;;;;;;;2773529;51;8893;-81
2021/09/18 09:23:16;;;;;;;;;0.00;0.00;;;;;;;;2773146;51;8879;-83
2021/09/18 09:25:41;;;;;;;;;1.00;1.00;;;;;;;;2772635;51;8773;-82
2021/09/18 09:28:22;;;;;;;;;0.00;0.00;;;;;;;;2773716;51;8810;-74
2021/09/18 09:30:48;;;;;;;;;1.00;1.00;;;;;;;;2773202;51;8765;-75
2021/09/18 09:33:14;;;;;;;;;2.00;1.75;;;;;;;;2778320;51;8775;-76
2021/09/18 09:35:40;;;;;;;;;1.67;1.00;;;;;;;;2779330;51;8777;-79
2021/09/18 09:38:06;;;;;;;;;4.00;2.00;;;;;;;;2779504;51;8770;-79
2021/09/18 09:40:40;;;;;;;;;3.00;3.00;;;;;;;;2778955;51;8787;-79
2021/09/18 09:43:07;;;;;;;;;2.00;2.00;;;;;;;;2779312;51;8983;-79
2021/09/18 09:45:33;;;;;;;;;1.00;1.00;;;;;;;;2779107;51;8769;-79
2021/09/18 09:48:19;;;;;;;;;0.00;0.00;;;;;;;;2779285;51;8774;-80
2021/09/18 09:50:55;;;;;;;;;2.50;2.50;;;;;;;;2778975;51;8767;-80
2021/09/18 09:53:31;;;;;;;;;2.00;2.00;;;;;;;;2779212;51;8856;-81
2021/09/18 09:55:57;;;;;;;;;1.75;1.25;;;;;;;;2778041;51;9448;-84
2021/09/18 09:58:24;;;;;;;;;3.00;1.00;;;;;;;;2774620;51;8935;-81
2021/09/18 10:00:53;;;;;;;;;2.75;2.75;;;;;;;;2774038;51;8882;-74
2021/09/18 10:03:20;;;;;;;;;2.00;2.00;;;;;;;;2774815;51;8762;-74
2021/09/18 10:05:46;;;;;;;;;4.00;3.00;;;;;;;;2774245;51;8867;-81
2021/09/18 10:08:12;;;;;;;;;2.00;2.00;;;;;;;;2777134;51;8785;-78
2021/09/18 10:10:39;;;;;;;;;1.00;1.00;;;;;;;;2776655;51;8786;-79
2021/09/18 10:13:05;;;;;;;;;2.60;2.60;;;;;;;;2775801;51;8912;-74
2021/09/18 10:15:31;;;;;;;;;0.00;0.00;;;;;;;;2775677;51;8885;-78
2021/09/18 10:17:59;;;;;;;;;2.00;1.00;;;;;;;;2774941;51;8859;-78
2021/09/18 10:25:39;;;;;;;;;1.50;1.00;;;;;;;;2774595;51;8892;-80
2021/09/18 10:28:14;;;;;;;;;2.25;0.25;;;;;;;;2774486;51;8794;-79
2021/09/18 10:30:47;;;;;;;;;2.00;2.00;;;;;;;;2774906;51;9479;-79
2021/09/18 10:33:25;;;;;;;;;0.00;0.00;;;;;;;;2774650;51;8793;-78
2021/09/18 10:35:52;;;;;;;;;1.75;1.75;;;;;;;;2774082;51;8885;-78
2021/09/18 10:38:19;;;;;;;;;1.00;1.00;;;;;;;;2774227;51;8793;-78
2021/09/18 10:40:52;;;;;;;;;2.00;2.00;;;;;;;;2774568;51;9735;-79
2021/09/18 10:43:29;;;;;;;;;1.00;0.00;;;;;;;;2774533;51;8826;-78
2021/09/18 10:45:55;;;;;;;;;0.00;0.00;;;;;;;;2774340;51;8778;-79
2021/09/18 10:48:33;;;;;;;;;1.00;1.00;;;;;;;;2774312;51;8849;-79
2021/09/18 10:50:59;;;;;;;;;0.00;0.00;;;;;;;;2774251;51;8896;-78
2021/09/18 10:53:25;;;;;;;;;1.00;1.00;;;;;;;;2774597;51;8933;-78
2021/09/18 10:56:09;;;;;;;;;1.00;1.00;;;;;;;;2774239;51;8806;-78
2021/09/18 10:58:34;;;;;;;;;1.50;1.50;;;;;;;;2774369;51;8901;-80
2021/09/18 11:01:01;;;;;;;;;1.00;1.00;;;;;;;;2774009;51;8813;-76
2021/09/18 11:03:34;;;;;;;;;0.80;0.80;;;;;;;;2774375;51;8823;-79
2021/09/18 11:05:59;;;;;;;;;1.40;1.40;;;;;;;;2774345;51;8917;-84
2021/09/18 11:08:27;;;;;;;;;4.00;4.00;;;;;;;;2774693;51;8765;-80
2021/09/18 11:11:09;;;;;;;;;2.20;2.20;;;;;;;;2774362;51;9381;-79
2021/09/18 11:13:40;;;;;;;;;4.40;4.00;;;;;;;;2774482;51;8906;-78
2021/09/18 11:16:07;;;;;;;;;5.80;5.00;;;;;;;;2775628;51;8790;-80
2021/09/18 11:18:36;;;;;;;;;4.00;4.00;;;;;;;;2774545;51;8817;-80
2021/09/18 11:21:11;;;;;;;;;1.00;1.00;;;;;;;;2775147;51;8800;-79
2021/09/18 11:23:45;;;;;;;;;0.00;0.00;;;;;;;;2774972;51;8810;-78
2021/09/18 11:26:31;;;;;;;;;0.50;0.50;;;;;;;;2776240;51;8824;-77
2021/09/18 11:29:10;;;;;;;;;1.00;1.00;;;;;;;;2774303;51;9237;-79
2021/09/18 11:31:37;;;;;;;;;0.00;0.00;;;;;;;;2773919;51;9443;-75
2021/09/18 11:34:02;;;;;;;;;0.00;0.00;;;;;;;;2774099;51;8801;-78
2021/09/18 11:36:28;;;;;;;;;0.00;0.00;;;;;;;;2774011;51;8903;-77
2021/09/18 11:38:54;;;;;;;;;0.00;0.00;;;;;;;;2774187;51;8793;-78
2021/09/18 11:41:20;;;;;;;;;1.67;0.67;;;;;;;;2773996;51;9379;-78
2021/09/18 11:43:46;;;;;;;;;0.00;0.00;;;;;;;;2774208;51;9301;-81
2021/09/18 11:46:22;;;;;;;;;0.00;0.00;;;;;;;;2773984;51;9239;-78
2021/09/18 11:48:57;;;;;;;;;0.00;0.00;;;;;;;;2774211;51;8813;-79
2021/09/18 11:51:23;;;;;;;;;0.00;0.00;;;;;;;;2774060;51;8969;-79
2021/09/18 11:53:57;;;;;;;;;0.00;0.00;;;;;;;;2774209;51;9473;-79
2021/09/18 11:56:23;;;;;;;;;0.00;0.00;;;;;;;;2774201;51;8785;-80
2021/09/18 11:58:48;;;;;;;;;0.00;0.00;;;;;;;;2774148;51;8807;-81
2021/09/18 12:01:15;;;;;;;;;1.00;1.00;;;;;;;;2774133;51;8767;-79
2021/09/18 12:03:43;;;;;;;;;1.00;1.00;;;;;;;;2774288;51;8769;-80
2021/09/18 12:06:10;;;;;;;;;2.40;1.00;;;;;;;;2774479;51;9532;-78
2021/09/18 12:08:37;;;;;;;;;0.00;0.00;;;;;;;;2773689;51;9535;-77
2021/09/18 12:11:10;;;;;;;;;0.00;0.00;;;;;;;;2773921;51;8912;-79
2021/09/18 12:13:37;;;;;;;;;2.60;2.60;;;;;;;;2774168;51;8777;-78
2021/09/18 12:16:03;;;;;;;;;2.00;2.00;;;;;;;;2774130;51;8797;-77
2021/09/18 12:18:29;;;;;;;;;0.20;0.20;;;;;;;;2774255;51;8798;-79
2021/09/18 12:21:05;;;;;;;;;2.00;2.00;;;;;;;;2773735;51;8802;-78
2021/09/18 12:23:32;;;;;;;;;3.00;3.00;;;;;;;;2774143;51;8800;-80
2021/09/18 12:26:00;;;;;;;;;0.00;0.00;;;;;;;;2773366;51;8793;-78
2021/09/18 12:28:26;;;;;;;;;4.20;3.00;;;;;;;;2773740;51;8774;-77
2021/09/18 12:30:52;;;;;;;;;4.40;4.40;;;;;;;;2773663;51;8825;-75
2021/09/18 12:33:26;;;;;;;;;4.20;4.20;;;;;;;;2773898;51;8782;-74
2021/09/18 12:35:51;;;;;;;;;3.00;3.00;;;;;;;;2774164;51;8778;-75
2021/09/18 12:38:17;;;;;;;;;0.00;0.00;;;;;;;;2774115;51;8793;-77
2021/09/18 12:40:46;;;;;;;;;0.00;0.00;;;;;;;;2773844;51;9507;-82
2021/09/18 12:43:21;;;;;;;;;0.80;0.80;;;;;;;;2774086;51;8790;-78
2021/09/18 12:45:48;;;;;;;;;0.00;0.00;;;;;;;;2773904;51;8785;-77
2021/09/18 12:48:19;;;;;;;;;0.20;0.20;;;;;;;;2773743;51;8779;-76
2021/09/18 12:50:45;;;;;;;;;1.00;1.00;;;;;;;;2773942;51;9491;-77
2021/09/18 12:53:19;;;;;;;;;1.00;1.00;;;;;;;;2773798;51;8878;-75
2021/09/18 12:56:03;;;;;;;;;0.50;0.50;;;;;;;;2771944;51;8907;-80
2021/09/18 12:58:29;;;;;;;;;0.00;0.00;;;;;;;;2773390;51;8789;-80
2021/09/18 13:01:01;;;;;;;;;0.00;0.00;;;;;;;;2774276;51;8776;-77
2021/09/18 13:03:27;;;;;;;;;0.00;0.00;;;;;;;;2773968;51;8774;-79
2021/09/18 13:05:59;;;;;;;;;0.33;0.00;;;;;;;;2773581;51;8773;-78
2021/09/18 13:08:24;;;;;;;;;1.00;1.00;;;;;;;;2779243;51;8767;-77
2021/09/18 13:10:50;;;;;;;;;0.00;0.00;;;;;;;;2775105;51;8837;-80
2021/09/18 13:13:32;;;;;;;;;0.00;0.00;;;;;;;;2775571;51;8779;-82
2021/09/18 13:16:01;;;;;;;;;0.00;0.00;;;;;;;;2775388;51;8804;-77
2021/09/18 13:18:27;;;;;;;;;0.00;0.00;;;;;;;;2775252;51;8787;-78
2021/09/18 13:20:52;;;;;;;;;0.67;0.67;;;;;;;;2774523;51;8794;-79
2021/09/18 13:23:18;;;;;;;;;0.00;0.00;;;;;;;;2775406;51;11535;-77
2021/09/18 13:25:44;;;;;;;;;0.00;0.00;;;;;;;;2774991;51;8790;-74
2021/09/18 13:28:10;;;;;;;;;0.67;0.67;;;;;;;;2775154;51;8890;-74
2021/09/18 13:30:35;;;;;;;;;0.25;0.25;;;;;;;;2775038;51;8831;-75
2021/09/18 13:33:01;;;;;;;;;1.33;1.33;;;;;;;;2775089;51;8769;-78
2021/09/18 13:35:27;;;;;;;;;1.00;1.00;;;;;;;;2775166;51;8870;-75
2021/09/18 13:37:53;;;;;;;;;2.00;1.00;;;;;;;;2774921;51;8789;-68
2021/09/18 13:40:19;;;;;;;;;2.00;1.00;;;;;;;;2775011;51;8814;-70
2021/09/18 13:42:44;;;;;;;;;1.00;1.00;;;;;;;;2775026;51;8761;-70
2021/09/18 13:45:10;;;;;;;;;1.00;1.00;;;;;;;;2774882;51;8806;-72
2021/09/18 13:47:35;;;;;;;;;0.75;0.75;;;;;;;;2774970;51;8800;-73
2021/09/18 13:50:01;;;;;;;;;0.75;0.75;;;;;;;;2774925;51;9435;-72
2021/09/18 13:52:27;;;;;;;;;0.00;0.00;;;;;;;;2774778;51;9454;-69
2021/09/18 13:54:53;;;;;;;;;1.00;1.00;;;;;;;;2775249;51;8802;-73
2021/09/18 13:57:18;;;;;;;;;1.00;1.00;;;;;;;;2774789;51;9673;-68
2021/09/18 13:59:44;;;;;;;;;2.00;2.00;;;;;;;;2774939;51;8920;-68
2021/09/18 14:02:12;;;;;;;;;2.75;2.00;;;;;;;;2775213;51;8898;-70
2021/09/18 14:04:38;;;;;;;;;3.00;3.00;;;;;;;;2774804;51;8887;-70
2021/09/18 14:07:03;;;;;;;;;0.75;0.75;;;;;;;;2774860;51;8775;-68
2021/09/18 14:09:29;;;;;;;;;1.00;1.00;;;;;;;;2775082;51;8838;-71
2021/09/18 14:11:55;;;;;;;;;1.00;1.00;;;;;;;;2774822;51;8787;-68
2021/09/18 14:14:20;;;;;;;;;3.00;3.00;;;;;;;;2774367;51;8884;-67
2021/09/18 14:16:49;;;;;;;;;2.00;2.00;;;;;;;;2774193;51;8774;-68
2021/09/18 14:19:15;;;;;;;;;1.80;1.80;;;;;;;;2774851;51;8818;-74
2021/09/18 14:21:40;;;;;;;;;1.80;1.80;;;;;;;;2775023;51;8813;-70
2021/09/18 14:24:06;;;;;;;;;2.00;2.00;;;;;;;;2774675;51;8807;-71
2021/09/18 14:26:32;;;;;;;;;3.00;3.00;;;;;;;;2774738;51;8797;-71
2021/09/18 14:28:58;;;;;;;;;0.75;0.75;;;;;;;;2775016;51;8801;-70
2021/09/18 14:31:24;;;;;;;;;1.00;1.00;;;;;;;;2774846;51;8898;-69
2021/09/18 14:33:50;;;;;;;;;1.60;0.60;;;;;;;;2774889;51;8794;-69
2021/09/18 14:36:16;;;;;;;;;3.40;3.00;;;;;;;;2774592;51;8794;-70
2021/09/18 14:38:42;;;;;;;;;5.00;2.25;;;;;;;;2773826;51;8825;-70
2021/09/18 14:41:07;;;;;;;;;3.00;1.50;;;;;;;;2774680;51;8779;-71
2021/09/18 14:43:33;;;;;;;;;3.00;3.00;;;;;;;;2774692;51;8789;-71
2021/09/18 14:45:59;;;;;;;;;2.25;2.25;;;;;;;;2774790;51;9423;-69
2021/09/18 14:48:24;;;;;;;;;2.00;2.00;;;;;;;;2774607;51;11393;-68
2021/09/18 14:50:51;;;;;;;;;4.00;4.00;;;;;;;;2774577;51;8802;-68
2021/09/18 14:53:17;;;;;;;;;3.20;3.20;;;;;;;;2775213;51;8794;-68
2021/09/18 14:55:44;;;;;;;;;0.25;0.25;;;;;;;;2775156;51;8890;-68
2021/09/18 14:58:10;;;;;;;;;1.40;1.40;;;;;;;;2774625;51;8892;-68